Himeji, Japan
Current Conditions -  °F | °C
As of 4:00 PM on Saturday 25 Oct 2014 (Local Time) from RJBE Reporting Station
Few Clouds Few Clouds  
Wind Chill: 72°   Ceiling: Unl
Heat Index: 72°   Visibility: 6mi
Dew Point: 54°   Wind: 2mph
Humidity: 53%   Direction: 210°SSW
Pressure: 30.12"   Gusts: NA
Location:  34.83°N, 134.69°E
Report Text: RJBE 250700Z 21002KT 9999 FEW035 22/12 Q1020
Loading
Personal Weather Stations






























Interactive Weather Map
Tropical Storm Tracking
New forecast layout! Learn more

10-Day Weather Forecast

Advertisements
Track Severe Weather on mobile